createdAt,value
2018-04-29T00:00:06.552Z,13.60
2018-04-29T00:02:34.023Z,13.60
2018-04-29T00:05:01.759Z,13.60
2018-04-29T00:07:29.515Z,13.60
2018-04-29T00:09:57.008Z,13.50
2018-04-29T00:12:24.483Z,13.50
2018-04-29T00:14:52.736Z,13.50
2018-04-29T00:17:20.212Z,13.40
2018-04-29T00:19:48.479Z,13.50
2018-04-29T00:22:15.954Z,13.50
2018-04-29T00:24:43.443Z,13.50
2018-04-29T00:27:11.215Z,13.40
2018-04-29T00:29:38.692Z,12.50
2018-04-29T00:32:06.179Z,12.30
2018-04-29T00:34:33.892Z,11.80
2018-04-29T00:37:01.384Z,11.40
2018-04-29T00:39:28.864Z,11.20
2018-04-29T00:41:57.128Z,11.10
2018-04-29T00:44:24.844Z,11.10
2018-04-29T00:46:52.320Z,11.10
2018-04-29T00:49:19.812Z,11.10
2018-04-29T00:51:59.927Z,11.30
2018-04-29T00:54:27.421Z,11.20
2018-04-29T00:56:55.672Z,11.30
2018-04-29T00:59:23.508Z,11.20
2018-04-29T01:01:51.275Z,11.20
2018-04-29T01:04:18.764Z,11.30
2018-04-29T01:06:46.492Z,11.30
2018-04-29T01:09:14.010Z,11.40
2018-04-29T01:11:43.000Z,11.60
2018-04-29T01:14:11.248Z,11.70
2018-04-29T01:16:38.744Z,11.70
2018-04-29T01:19:06.984Z,11.80
2018-04-29T01:21:34.483Z,11.80
2018-04-29T01:24:02.724Z,12.20
2018-04-29T01:26:30.215Z,12.20
2018-04-29T01:28:57.759Z,12.10
2018-04-29T01:31:26.016Z,12.50
2018-04-29T01:33:53.843Z,12.50
2018-04-29T01:36:21.319Z,12.50
2018-04-29T01:38:49.163Z,12.50
2018-04-29T01:41:16.960Z,12.50
2018-04-29T01:43:44.452Z,12.50
2018-04-29T01:46:12.696Z,12.40
2018-04-29T01:48:41.008Z,12.30
2018-04-29T01:51:09.519Z,12.30
2018-04-29T01:53:37.032Z,12.30
2018-04-29T01:56:05.312Z,12.40
2018-04-29T01:58:33.588Z,12.40
2018-04-29T02:01:01.869Z,12.50
2018-04-29T02:03:30.388Z,12.70
2018-04-29T02:05:57.900Z,12.70
2018-04-29T02:08:26.150Z,13.20
2018-04-29T02:10:53.648Z,13.20
2018-04-29T02:13:21.888Z,13.10
2018-04-29T02:15:50.148Z,13.20
2018-04-29T02:18:17.623Z,13.20
2018-04-29T02:20:45.351Z,13.30
2018-04-29T02:23:13.117Z,13.30
2018-04-29T02:25:40.615Z,13.40
2018-04-29T02:28:08.338Z,13.40
2018-04-29T02:30:35.817Z,13.40
2018-04-29T02:33:03.532Z,13.50
2018-04-29T02:35:31.013Z,13.60
2018-04-29T02:37:58.907Z,13.50
2018-04-29T02:40:26.640Z,13.40
2018-04-29T02:42:54.123Z,13.30
2018-04-29T02:45:21.712Z,13.30
2018-04-29T02:47:50.249Z,13.20
2018-04-29T02:50:17.748Z,13.20
2018-04-29T02:52:45.241Z,13.20
2018-04-29T02:55:12.730Z,13.00
2018-04-29T02:57:40.230Z,13.00
2018-04-29T03:00:08.475Z,12.80
2018-04-29T03:02:35.990Z,12.80
2018-04-29T03:05:03.476Z,12.80
2018-04-29T03:07:30.964Z,12.70
2018-04-29T03:09:58.473Z,12.70
2018-04-29T03:12:25.974Z,12.70
2018-04-29T03:14:53.486Z,12.50
2018-04-29T03:17:20.975Z,12.20
2018-04-29T03:19:48.503Z,12.20
2018-04-29T03:22:15.976Z,12.20
2018-04-29T03:24:43.447Z,12.20
2018-04-29T03:27:10.935Z,12.20
2018-04-29T03:29:39.212Z,12.00
2018-04-29T03:32:07.492Z,12.00
2018-04-29T03:34:35.735Z,11.90
2018-04-29T03:37:03.211Z,11.90
2018-04-29T03:39:30.707Z,11.80
2018-04-29T03:41:58.236Z,11.80
2018-04-29T03:44:26.495Z,11.70
2018-04-29T03:46:55.476Z,11.60
2018-04-29T03:49:23.060Z,11.60
2018-04-29T03:51:50.768Z,11.60
2018-04-29T03:54:18.531Z,11.60
2018-04-29T03:56:46.020Z,11.50
2018-04-29T03:59:25.489Z,11.50
2018-04-29T04:02:05.584Z,11.40
2018-04-29T04:04:33.075Z,11.30
2018-04-29T04:07:00.555Z,11.30
2018-04-29T04:09:29.081Z,11.10
2018-04-29T04:11:56.573Z,11.10
2018-04-29T04:14:24.299Z,11.00
2018-04-29T04:16:51.791Z,11.10
2018-04-29T04:19:19.271Z,11.10
2018-04-29T04:21:47.548Z,11.10
2018-04-29T04:24:15.784Z,11.00
2018-04-29T04:26:43.259Z,11.00
2018-04-29T04:29:10.755Z,11.00
2018-04-29T04:31:38.296Z,11.00
2018-04-29T04:34:06.633Z,10.90
2018-04-29T04:36:34.277Z,10.80
2018-04-29T04:39:01.775Z,10.90
2018-04-29T04:41:31.036Z,11.10
2018-04-29T04:43:58.554Z,11.10
2018-04-29T04:46:26.818Z,11.10
2018-04-29T04:48:54.294Z,11.10
2018-04-29T04:51:22.551Z,10.90
2018-04-29T04:53:50.024Z,10.80
2018-04-29T04:56:18.295Z,11.00
2018-04-29T04:58:46.541Z,11.10
2018-04-29T05:01:14.272Z,11.10
2018-04-29T05:03:41.760Z,11.10
2018-04-29T05:06:10.748Z,12.10
2018-04-29T05:08:38.240Z,12.10
2018-04-29T05:11:06.481Z,12.90
2018-04-29T05:13:33.973Z,12.90
2018-04-29T05:16:02.221Z,13.70
2018-04-29T05:18:29.715Z,13.70
2018-04-29T05:20:57.192Z,14.60
2018-04-29T05:23:24.668Z,15.40
2018-04-29T05:25:52.165Z,16.40
2018-04-29T05:28:19.644Z,17.20
2018-04-29T05:30:47.898Z,18.00
2018-04-29T05:33:15.423Z,18.00
2018-04-29T05:35:42.921Z,18.40
2018-04-29T05:38:11.168Z,19.40
2018-04-29T05:40:38.644Z,19.40
2018-04-29T05:43:06.131Z,19.80
2018-04-29T05:45:33.632Z,20.20
2018-04-29T05:48:01.124Z,20.50
2018-04-29T05:50:29.368Z,20.80
2018-04-29T05:52:56.905Z,20.80
2018-04-29T05:55:24.388Z,21.30
2018-04-29T05:57:51.883Z,20.50
2018-04-29T06:00:20.167Z,19.60
2018-04-29T06:02:48.404Z,19.10
2018-04-29T06:05:16.138Z,19.10
2018-04-29T06:07:43.620Z,20.10
2018-04-29T06:10:11.352Z,20.20
2018-04-29T06:12:38.827Z,20.20
2018-04-29T06:15:06.304Z,20.30
2018-04-29T06:17:35.620Z,21.40
2018-04-29T06:20:03.864Z,21.10
2018-04-29T06:22:31.456Z,21.10
2018-04-29T06:24:59.699Z,21.90
2018-04-29T06:27:27.204Z,21.80
2018-04-29T06:29:55.485Z,20.00
2018-04-29T06:32:23.276Z,20.00
2018-04-29T06:34:51.103Z,20.20
2018-04-29T06:37:18.904Z,20.00
2018-04-29T06:39:46.404Z,19.40
2018-04-29T06:42:13.884Z,18.20
2018-04-29T06:44:42.148Z,18.20
2018-04-29T06:47:10.424Z,19.10
2018-04-29T06:49:38.716Z,19.90
2018-04-29T06:52:06.975Z,20.50
2018-04-29T06:54:34.448Z,20.50
2018-04-29T06:57:02.784Z,19.70
2018-04-29T06:59:30.724Z,19.70
2018-04-29T07:01:58.244Z,20.60
2018-04-29T07:04:26.516Z,19.50
2018-04-29T07:06:54.759Z,18.70
2018-04-29T07:09:22.349Z,18.70
2018-04-29T07:11:50.876Z,18.30
2018-04-29T07:14:19.133Z,18.40
2018-04-29T07:16:46.667Z,18.40
2018-04-29T07:19:14.903Z,18.80
2018-04-29T07:21:42.411Z,18.80
2018-04-29T07:24:10.670Z,19.50
2018-04-29T07:26:38.164Z,19.50
2018-04-29T07:29:05.643Z,19.60
2018-04-29T07:31:33.120Z,19.40
2018-04-29T07:34:00.691Z,20.00
2018-04-29T07:36:28.096Z,19.80
2018-04-29T07:38:55.620Z,20.60
2018-04-29T07:41:23.935Z,22.40
2018-04-29T07:43:51.415Z,22.40
2018-04-29T07:46:18.906Z,21.90
2018-04-29T07:48:47.151Z,24.70
2018-04-29T07:51:14.656Z,24.60
2018-04-29T07:53:42.137Z,23.40
2018-04-29T07:56:09.635Z,23.40
2018-04-29T07:58:37.140Z,24.20
2018-04-29T08:01:04.675Z,23.80
2018-04-29T08:03:33.203Z,25.20
2018-04-29T08:06:00.679Z,25.20
2018-04-29T08:08:28.425Z,23.80
2018-04-29T08:10:55.902Z,22.50
2018-04-29T08:13:23.464Z,22.90
2018-04-29T08:15:50.947Z,24.30
2018-04-29T08:18:19.476Z,22.00
2018-04-29T08:20:46.967Z,21.90
2018-04-29T08:23:14.444Z,22.40
2018-04-29T08:25:42.003Z,22.80
2018-04-29T08:28:09.476Z,22.20
2018-04-29T08:30:37.844Z,22.90
2018-04-29T08:33:06.118Z,22.90
2018-04-29T08:35:34.355Z,23.40
2018-04-29T08:38:02.099Z,23.30
2018-04-29T08:40:29.573Z,24.40
2018-04-29T08:42:57.064Z,24.90
2018-04-29T08:45:24.539Z,23.40
2018-04-29T08:47:53.051Z,24.50
2018-04-29T08:50:20.819Z,24.40
2018-04-29T08:52:48.309Z,24.60
2018-04-29T08:55:15.887Z,24.60
2018-04-29T08:57:43.359Z,25.30
2018-04-29T09:00:11.875Z,24.50
2018-04-29T09:02:39.387Z,24.50
2018-04-29T09:05:07.663Z,24.60
2018-04-29T09:07:36.188Z,25.10
2018-04-29T09:10:03.957Z,25.00
2018-04-29T09:12:31.715Z,24.90
2018-04-29T09:14:59.188Z,24.20
2018-04-29T09:17:26.683Z,24.30
2018-04-29T09:19:54.970Z,25.00
2018-04-29T09:22:23.236Z,24.80
2018-04-29T09:24:51.512Z,24.90
2018-04-29T09:27:20.039Z,24.90
2018-04-29T09:29:47.531Z,24.90
2018-04-29T09:32:15.008Z,25.50
2018-04-29T09:34:43.271Z,25.50
2018-04-29T09:37:11.001Z,25.50
2018-04-29T09:39:38.499Z,25.60
2018-04-29T09:42:06.781Z,25.90
2018-04-29T09:44:35.312Z,26.30
2018-04-29T09:47:03.071Z,26.30
2018-04-29T09:49:30.551Z,26.60
2018-04-29T09:51:58.044Z,26.90
2018-04-29T09:54:25.543Z,26.90
2018-04-29T09:56:53.108Z,27.10
2018-04-29T09:59:20.594Z,27.40
2018-04-29T10:01:52.993Z,27.00
2018-04-29T10:04:21.517Z,26.60
2018-04-29T10:06:48.989Z,26.60
2018-04-29T10:09:16.482Z,27.30
2018-04-29T10:11:44.732Z,27.80
2018-04-29T10:14:12.597Z,27.70
2018-04-29T10:16:40.071Z,27.90
2018-04-29T10:19:07.563Z,28.40
2018-04-29T10:21:35.040Z,28.50
2018-04-29T10:24:02.511Z,29.20
2018-04-29T10:26:30.258Z,29.10
2018-04-29T10:28:57.731Z,28.40
2018-04-29T10:31:25.232Z,28.30
2018-04-29T10:33:53.696Z,28.40
2018-04-29T10:36:21.192Z,28.40
2018-04-29T10:38:48.732Z,29.10
2018-04-29T10:41:16.539Z,29.70
2018-04-29T10:43:44.055Z,29.20
2018-04-29T10:46:12.296Z,29.20
2018-04-29T10:48:39.884Z,29.10
2018-04-29T10:51:08.123Z,30.00
2018-04-29T10:53:35.625Z,29.90
2018-04-29T10:56:03.870Z,29.60
2018-04-29T10:58:31.344Z,29.60
2018-04-29T11:00:59.059Z,30.00
2018-04-29T11:03:26.673Z,29.90
2018-04-29T11:05:54.944Z,29.60
2018-04-29T11:08:22.419Z,29.60
2018-04-29T11:10:50.680Z,29.90
2018-04-29T11:13:18.926Z,29.90
2018-04-29T11:15:46.401Z,29.80
2018-04-29T11:18:14.947Z,29.70
2018-04-29T11:20:42.424Z,29.60
2018-04-29T11:23:09.915Z,30.00
2018-04-29T11:25:38.156Z,29.90
2018-04-29T11:28:05.996Z,29.90
2018-04-29T11:30:33.471Z,29.90
2018-04-29T11:33:00.948Z,30.20
2018-04-29T11:35:28.671Z,30.20
2018-04-29T11:37:56.436Z,29.90
2018-04-29T11:40:24.059Z,29.70
2018-04-29T11:42:52.200Z,30.50
2018-04-29T11:45:19.788Z,30.50
2018-04-29T11:47:48.056Z,31.20
2018-04-29T11:50:15.530Z,31.10
2018-04-29T11:52:44.044Z,30.80
2018-04-29T11:55:11.540Z,30.80
2018-04-29T11:57:39.031Z,30.10
2018-04-29T12:00:06.826Z,30.20
2018-04-29T12:02:34.341Z,30.30
2018-04-29T12:05:02.611Z,30.80
2018-04-29T12:07:31.140Z,30.90
2018-04-29T12:09:58.676Z,30.90
2018-04-29T12:12:26.910Z,30.80
2018-04-29T12:14:55.172Z,30.90
2018-04-29T12:17:22.644Z,30.80
2018-04-29T12:19:50.903Z,30.10
2018-04-29T12:22:18.380Z,30.00
2018-04-29T12:24:45.907Z,31.00
2018-04-29T12:27:13.656Z,31.40
2018-04-29T12:29:41.132Z,32.10
2018-04-29T12:32:08.881Z,31.80
2018-04-29T12:34:36.356Z,30.60
2018-04-29T12:37:03.852Z,30.20
2018-04-29T12:39:32.100Z,30.80
2018-04-29T12:42:00.345Z,31.70
2018-04-29T12:44:28.109Z,32.20
2018-04-29T12:46:55.584Z,32.10
2018-04-29T12:49:23.071Z,30.60
2018-04-29T12:51:51.367Z,30.00
2018-04-29T12:54:19.624Z,30.50
2018-04-29T12:56:47.863Z,31.30
2018-04-29T12:59:15.339Z,31.30
2018-04-29T13:01:43.651Z,30.90
2018-04-29T13:04:11.888Z,31.00
2018-04-29T13:06:39.380Z,31.00
2018-04-29T13:09:07.900Z,30.00
2018-04-29T13:11:35.662Z,30.00
2018-04-29T13:14:03.136Z,29.40
2018-04-29T13:16:30.615Z,29.00
2018-04-29T13:18:58.903Z,28.40
2018-04-29T13:21:27.438Z,28.30
2018-04-29T13:23:54.952Z,28.30
2018-04-29T13:26:23.223Z,28.10
2018-04-29T13:28:51.484Z,28.10
2018-04-29T13:31:18.960Z,28.10
2018-04-29T13:33:47.200Z,28.00
2018-04-29T13:36:14.693Z,28.00
2018-04-29T13:38:42.940Z,27.10
2018-04-29T13:41:11.970Z,27.30
2018-04-29T13:43:40.211Z,27.30
2018-04-29T13:46:07.707Z,27.30
2018-04-29T13:48:35.235Z,26.90
2018-04-29T13:51:02.768Z,27.00
2018-04-29T13:53:30.275Z,27.20
2018-04-29T13:55:58.575Z,27.10
2018-04-29T13:58:26.067Z,27.00
2018-04-29T14:00:53.567Z,27.20
2018-04-29T14:03:21.835Z,27.00
2018-04-29T14:05:50.353Z,27.20
2018-04-29T14:08:17.836Z,27.20
2018-04-29T14:10:45.327Z,27.30
2018-04-29T14:13:13.584Z,27.00
2018-04-29T14:15:42.595Z,27.20
2018-04-29T14:18:11.291Z,27.30
2018-04-29T14:20:38.873Z,27.20
2018-04-29T14:23:06.390Z,27.30
2018-04-29T14:25:34.651Z,27.20
2018-04-29T14:28:02.139Z,27.30
2018-04-29T14:30:30.384Z,27.30
2018-04-29T14:32:58.112Z,27.20
2018-04-29T14:35:25.588Z,27.20
2018-04-29T14:37:53.121Z,27.20
2018-04-29T14:40:20.892Z,27.30
2018-04-29T14:42:48.376Z,27.00
2018-04-29T14:45:15.877Z,27.20
2018-04-29T14:47:43.459Z,26.90
2018-04-29T14:50:10.947Z,26.90
2018-04-29T14:52:38.438Z,27.20
2018-04-29T14:55:06.704Z,26.90
2018-04-29T14:57:35.237Z,26.90
2018-04-29T15:00:02.724Z,26.80
2018-04-29T15:02:30.455Z,26.80
2018-04-29T15:04:57.946Z,27.00
2018-04-29T15:07:25.531Z,27.20
2018-04-29T15:09:53.808Z,27.20
2018-04-29T15:12:22.079Z,26.90
2018-04-29T15:14:50.323Z,27.00
2018-04-29T15:17:18.063Z,27.00
2018-04-29T15:19:52.792Z,26.90
2018-04-29T15:22:20.271Z,26.90
2018-04-29T15:24:47.868Z,26.70
2018-04-29T15:27:16.115Z,27.00
2018-04-29T15:29:43.611Z,27.00
2018-04-29T15:32:11.858Z,27.10
2018-04-29T15:34:39.440Z,27.00
2018-04-29T15:37:07.699Z,26.70
2018-04-29T15:39:35.176Z,26.70
2018-04-29T15:42:03.427Z,26.90
2018-04-29T15:44:30.923Z,26.90
2018-04-29T15:46:58.460Z,26.90
2018-04-29T15:49:26.731Z,27.00
2018-04-29T15:51:54.975Z,26.90
2018-04-29T15:54:22.464Z,26.90
2018-04-29T15:56:50.704Z,26.90
2018-04-29T15:59:18.195Z,26.90
2018-04-29T16:01:46.480Z,27.00
2018-04-29T16:04:14.139Z,27.00
2018-04-29T16:06:42.416Z,26.90
2018-04-29T16:09:10.657Z,26.80
2018-04-29T16:11:38.182Z,26.70
2018-04-29T16:14:05.643Z,26.80
2018-04-29T16:16:33.136Z,26.70
2018-04-29T16:19:00.607Z,26.70
2018-04-29T16:21:28.220Z,26.70
2018-04-29T16:23:55.720Z,26.60
2018-04-29T16:26:23.195Z,26.40
2018-04-29T16:28:51.455Z,26.50
2018-04-29T16:31:19.696Z,26.40
2018-04-29T16:33:47.196Z,26.40
2018-04-29T16:36:15.439Z,26.30
2018-04-29T16:38:42.939Z,26.30
2018-04-29T16:41:11.183Z,26.40
2018-04-29T16:43:38.852Z,26.30
2018-04-29T16:46:07.040Z,26.30
2018-04-29T16:48:35.563Z,26.30
2018-04-29T16:51:03.064Z,26.30
2018-04-29T16:53:30.783Z,26.20
2018-04-29T16:55:58.271Z,26.20
2018-04-29T16:58:25.855Z,26.10
2018-04-29T17:00:53.336Z,26.20
2018-04-29T17:03:20.828Z,26.10
2018-04-29T17:05:48.319Z,26.00
2018-04-29T17:08:15.845Z,26.00
2018-04-29T17:10:43.356Z,25.90
2018-04-29T17:13:11.603Z,25.70
2018-04-29T17:15:39.432Z,25.70
2018-04-29T17:18:06.968Z,25.60
2018-04-29T17:20:34.510Z,25.60
2018-04-29T17:23:02.768Z,25.50
2018-04-29T17:25:30.240Z,25.40
2018-04-29T17:27:58.504Z,25.40
2018-04-29T17:30:25.985Z,25.30
2018-04-29T17:32:53.535Z,25.40
2018-04-29T17:35:21.126Z,25.30
2018-04-29T17:37:48.644Z,25.30
2018-04-29T17:40:17.171Z,25.00
2018-04-29T17:42:44.933Z,25.00
2018-04-29T17:45:12.412Z,25.00
2018-04-29T17:47:39.900Z,24.90
2018-04-29T17:50:08.147Z,24.80
2018-04-29T17:52:35.640Z,24.80
2018-04-29T17:55:03.953Z,24.80
2018-04-29T17:57:31.452Z,24.80
2018-04-29T17:59:58.928Z,24.80
2018-04-29T18:02:27.167Z,24.60
2018-04-29T18:04:54.884Z,24.50
2018-04-29T18:07:22.420Z,24.50
2018-04-29T18:09:49.867Z,24.50
2018-04-29T18:12:17.343Z,24.30
2018-04-29T18:14:45.597Z,24.30
2018-04-29T18:17:13.084Z,24.20
2018-04-29T18:19:41.607Z,24.20
2018-04-29T18:22:09.099Z,24.20
2018-04-29T18:24:36.573Z,24.20
2018-04-29T18:27:04.836Z,24.00
2018-04-29T18:29:32.308Z,24.00
2018-04-29T18:32:00.551Z,23.80
2018-04-29T18:34:28.383Z,23.80
2018-04-29T18:36:55.911Z,23.70
2018-04-29T18:39:24.167Z,23.60
2018-04-29T18:41:52.415Z,23.60
2018-04-29T18:44:19.943Z,23.50
2018-04-29T18:46:47.423Z,23.60
2018-04-29T18:49:14.899Z,23.50
2018-04-29T18:51:42.484Z,23.50
2018-04-29T18:54:10.190Z,23.40
2018-04-29T18:56:37.678Z,23.40
2018-04-29T18:59:05.509Z,23.40
2018-04-29T19:01:33.020Z,23.40
2018-04-29T19:04:01.264Z,23.40
2018-04-29T19:06:28.735Z,23.40
2018-04-29T19:08:56.461Z,23.40
2018-04-29T19:11:23.943Z,23.40
2018-04-29T19:13:51.680Z,23.30
2018-04-29T19:16:19.172Z,23.20
2018-04-29T19:18:46.669Z,23.10
2018-04-29T19:21:14.923Z,23.20
2018-04-29T19:23:42.592Z,23.10
2018-04-29T19:26:10.854Z,23.20
2018-04-29T19:28:38.375Z,23.20
2018-04-29T19:31:05.865Z,23.20
2018-04-29T19:33:33.349Z,23.10
2018-04-29T19:36:01.863Z,23.10
2018-04-29T19:38:29.666Z,23.10
2018-04-29T19:40:57.249Z,23.10
2018-04-29T19:43:25.768Z,23.10
2018-04-29T19:45:53.535Z,23.10
2018-04-29T19:48:21.135Z,23.20
2018-04-29T19:50:48.711Z,23.10
2018-04-29T19:53:16.968Z,23.00
2018-04-29T19:55:44.691Z,23.00
2018-04-29T19:58:12.191Z,23.00
2018-04-29T20:00:39.791Z,22.90
2018-04-29T20:03:07.271Z,22.90
2018-04-29T20:05:34.760Z,22.80
2018-04-29T20:08:03.303Z,22.70
2018-04-29T20:10:30.796Z,22.60
2018-04-29T20:12:58.497Z,22.60
2018-04-29T20:15:26.756Z,22.50
2018-04-29T20:17:55.001Z,22.40
2018-04-29T20:20:22.481Z,22.40
2018-04-29T20:22:50.133Z,22.40
2018-04-29T20:25:17.576Z,22.30
2018-04-29T20:27:45.064Z,22.20
2018-04-29T20:30:13.525Z,22.10
2018-04-29T20:32:48.716Z,22.00
2018-04-29T20:35:16.247Z,22.00
2018-04-29T20:37:44.488Z,22.00
2018-04-29T20:40:11.985Z,22.00
2018-04-29T20:42:40.286Z,22.00
2018-04-29T20:45:07.788Z,22.00
2018-04-29T20:47:35.265Z,22.00
2018-04-29T20:50:03.539Z,21.80
2018-04-29T20:52:31.795Z,21.80
2018-04-29T20:55:00.077Z,21.70
2018-04-29T20:57:28.616Z,21.80
2018-04-29T20:59:56.131Z,21.80
2018-04-29T21:02:24.656Z,21.70
2018-04-29T21:04:52.151Z,21.70
2018-04-29T21:07:19.644Z,21.70
2018-04-29T21:09:47.144Z,21.70
2018-04-29T21:12:14.924Z,21.60
2018-04-29T21:14:42.456Z,21.70
2018-04-29T21:17:10.369Z,21.70
2018-04-29T21:19:37.814Z,21.60
2018-04-29T21:22:05.640Z,21.50
2018-04-29T21:24:33.255Z,21.50
2018-04-29T21:27:01.499Z,21.50
2018-04-29T21:29:29.053Z,21.50
2018-04-29T21:31:56.540Z,21.40
2018-04-29T21:34:24.135Z,21.50
2018-04-29T21:36:51.631Z,21.50
2018-04-29T21:39:19.103Z,21.30
2018-04-29T21:41:46.684Z,21.30
2018-04-29T21:44:14.941Z,21.20
2018-04-29T21:46:42.439Z,21.20
2018-04-29T21:49:10.224Z,21.30
2018-04-29T21:51:37.743Z,21.20
2018-04-29T21:54:06.002Z,21.20
2018-04-29T21:56:33.793Z,21.20
2018-04-29T21:59:02.125Z,21.10
2018-04-29T22:01:29.609Z,21.10
2018-04-29T22:03:57.852Z,21.00
2018-04-29T22:06:25.343Z,21.00
2018-04-29T22:08:53.651Z,20.80
2018-04-29T22:11:21.175Z,20.80
2018-04-29T22:13:48.885Z,20.80
2018-04-29T22:16:16.364Z,20.70
2018-04-29T22:18:43.853Z,20.70
2018-04-29T22:21:12.112Z,20.60
2018-04-29T22:23:41.107Z,20.60
2018-04-29T22:26:08.580Z,20.60
2018-04-29T22:28:36.859Z,20.60
2018-04-29T22:31:05.120Z,20.50
2018-04-29T22:33:32.592Z,20.50
2018-04-29T22:36:00.848Z,20.40
2018-04-29T22:38:28.360Z,20.40
2018-04-29T22:40:55.851Z,20.40
2018-04-29T22:43:23.447Z,20.40
2018-04-29T22:45:51.722Z,20.30
2018-04-29T22:48:19.980Z,20.20
2018-04-29T22:50:48.220Z,20.20
2018-04-29T22:53:15.723Z,20.10
2018-04-29T22:55:44.000Z,20.10
2018-04-29T22:58:12.235Z,20.00
2018-04-29T23:00:39.727Z,20.00
2018-04-29T23:03:07.200Z,19.90
2018-04-29T23:05:35.712Z,19.80
2018-04-29T23:08:03.192Z,19.70
2018-04-29T23:10:30.667Z,19.70
2018-04-29T23:12:58.244Z,19.70
2018-04-29T23:15:26.559Z,19.60
2018-04-29T23:17:54.275Z,19.60
2018-04-29T23:20:21.747Z,19.60
2018-04-29T23:22:49.983Z,19.50
2018-04-29T23:25:17.473Z,19.50
2018-04-29T23:27:45.712Z,19.40
2018-04-29T23:30:13.203Z,19.40
2018-04-29T23:32:41.448Z,19.50
2018-04-29T23:35:08.928Z,19.50
2018-04-29T23:37:36.499Z,19.60
2018-04-29T23:40:04.774Z,19.40
2018-04-29T23:42:33.044Z,19.40
2018-04-29T23:45:00.515Z,19.40
2018-04-29T23:47:29.083Z,18.70
2018-04-29T23:49:56.516Z,18.70
2018-04-29T23:52:23.994Z,18.40
2018-04-29T23:54:51.487Z,18.20
2018-04-29T23:57:18.968Z,18.00
2018-04-29T23:59:46.476Z,17.90
